sensor_id;sensor_type;location;lat;lon;timestamp;P1;durP1;ratioP1;P2;durP2;ratioP2
65665;SDS011;52365;47.464;18.976;2023-04-01T00:00:20;5.22;;;2.80;;
65665;SDS011;52365;47.464;18.976;2023-04-01T00:00:57;8.00;;;3.08;;
65665;SDS011;52365;47.464;18.976;2023-04-01T00:01:34;5.85;;;2.92;;
65665;SDS011;52365;47.464;18.976;2023-04-01T00:02:10;4.30;;;2.60;;
65665;SDS011;52365;47.464;18.976;2023-04-01T00:02:46;4.35;;;2.65;;
65665;SDS011;52365;47.464;18.976;2023-04-01T00:03:23;5.40;;;2.53;;
65665;SDS011;52365;47.464;18.976;2023-04-01T00:04:01;5.37;;;2.90;;
65665;SDS011;52365;47.464;18.976;2023-04-01T00:04:37;5.30;;;2.67;;
65665;SDS011;52365;47.464;18.976;2023-04-01T00:05:13;5.97;;;2.58;;
65665;SDS011;52365;47.464;18.976;2023-04-01T00:05:51;4.37;;;2.60;;
65665;SDS011;52365;47.464;18.976;2023-04-01T00:06:28;5.80;;;2.50;;
65665;SDS011;52365;47.464;18.976;2023-04-01T00:07:04;5.35;;;2.60;;
65665;SDS011;52365;47.464;18.976;2023-04-01T00:07:40;6.75;;;2.80;;
65665;SDS011;52365;47.464;18.976;2023-04-01T00:08:16;5.03;;;2.42;;
65665;SDS011;52365;47.464;18.976;2023-04-01T00:08:53;6.20;;;2.60;;
65665;SDS011;52365;47.464;18.976;2023-04-01T00:09:29;5.25;;;2.55;;
65665;SDS011;52365;47.464;18.976;2023-04-01T00:10:06;5.68;;;2.60;;
65665;SDS011;52365;47.464;18.976;2023-04-01T00:10:43;5.03;;;2.40;;
65665;SDS011;52365;47.464;18.976;2023-04-01T00:11:20;4.40;;;2.40;;
65665;SDS011;52365;47.464;18.976;2023-04-01T00:11:56;3.60;;;2.30;;
65665;SDS011;52365;47.464;18.976;2023-04-01T00:12:32;4.65;;;2.42;;
65665;SDS011;52365;47.464;18.976;2023-04-01T00:13:08;5.20;;;2.42;;
65665;SDS011;52365;47.464;18.976;2023-04-01T00:13:45;4.65;;;2.58;;
65665;SDS011;52365;47.464;18.976;2023-04-01T00:14:21;4.85;;;2.37;;
65665;SDS011;52365;47.464;18.976;2023-04-01T00:14:57;5.07;;;2.62;;
65665;SDS011;52365;47.464;18.976;2023-04-01T00:15:33;4.80;;;2.70;;
65665;SDS011;52365;47.464;18.976;2023-04-01T00:16:10;4.60;;;2.70;;
65665;SDS011;52365;47.464;18.976;2023-04-01T00:16:46;4.68;;;2.58;;
65665;SDS011;52365;47.464;18.976;2023-04-01T00:17:22;5.75;;;2.62;;
65665;SDS011;52365;47.464;18.976;2023-04-01T00:17:58;5.40;;;2.60;;
65665;SDS011;52365;47.464;18.976;2023-04-01T00:18:34;4.25;;;2.65;;
65665;SDS011;52365;47.464;18.976;2023-04-01T00:19:11;5.15;;;2.60;;
65665;SDS011;52365;47.464;18.976;2023-04-01T00:19:47;5.47;;;2.70;;
65665;SDS011;52365;47.464;18.976;2023-04-01T00:20:23;3.70;;;2.58;;
65665;SDS011;52365;47.464;18.976;2023-04-01T00:20:59;4.82;;;2.53;;
65665;SDS011;52365;47.464;18.976;2023-04-01T00:21:35;4.87;;;2.70;;
65665;SDS011;52365;47.464;18.976;2023-04-01T00:22:12;5.12;;;2.60;;
65665;SDS011;52365;47.464;18.976;2023-04-01T00:22:48;4.22;;;2.33;;
65665;SDS011;52365;47.464;18.976;2023-04-01T00:23:25;4.65;;;2.60;;
65665;SDS011;52365;47.464;18.976;2023-04-01T00:24:01;4.85;;;2.60;;
65665;SDS011;52365;47.464;18.976;2023-04-01T00:24:38;4.62;;;2.60;;
65665;SDS011;52365;47.464;18.976;2023-04-01T00:25:14;4.40;;;2.60;;
65665;SDS011;52365;47.464;18.976;2023-04-01T00:25:50;5.25;;;2.65;;
65665;SDS011;52365;47.464;18.976;2023-04-01T00:26:26;5.28;;;2.75;;
65665;SDS011;52365;47.464;18.976;2023-04-01T00:27:02;4.75;;;2.60;;
65665;SDS011;52365;47.464;18.976;2023-04-01T00:27:39;4.53;;;2.53;;
65665;SDS011;52365;47.464;18.976;2023-04-01T00:28:16;4.05;;;2.25;;
65665;SDS011;52365;47.464;18.976;2023-04-01T00:28:53;4.55;;;2.42;;
65665;SDS011;52365;47.464;18.976;2023-04-01T00:29:29;5.50;;;2.70;;
65665;SDS011;52365;47.464;18.976;2023-04-01T00:30:06;5.12;;;2.22;;
65665;SDS011;52365;47.464;18.976;2023-04-01T00:30:42;3.87;;;2.42;;
65665;SDS011;52365;47.464;18.976;2023-04-01T00:31:19;4.12;;;2.40;;
65665;SDS011;52365;47.464;18.976;2023-04-01T00:31:56;3.47;;;2.42;;
65665;SDS011;52365;47.464;18.976;2023-04-01T00:32:33;4.70;;;2.40;;
65665;SDS011;52365;47.464;18.976;2023-04-01T00:33:09;5.60;;;2.40;;
65665;SDS011;52365;47.464;18.976;2023-04-01T00:33:46;4.20;;;2.40;;
65665;SDS011;52365;47.464;18.976;2023-04-01T00:34:22;5.03;;;2.40;;
65665;SDS011;52365;47.464;18.976;2023-04-01T00:34:59;4.80;;;2.40;;
65665;SDS011;52365;47.464;18.976;2023-04-01T00:35:35;4.22;;;2.30;;
65665;SDS011;52365;47.464;18.976;2023-04-01T00:36:16;3.85;;;2.20;;
65665;SDS011;52365;47.464;18.976;2023-04-01T00:36:53;3.90;;;2.40;;
65665;SDS011;52365;47.464;18.976;2023-04-01T00:37:30;3.70;;;2.25;;
65665;SDS011;52365;47.464;18.976;2023-04-01T00:38:06;4.82;;;2.20;;
65665;SDS011;52365;47.464;18.976;2023-04-01T00:38:42;3.67;;;2.10;;
65665;SDS011;52365;47.464;18.976;2023-04-01T00:39:22;5.40;;;2.40;;
65665;SDS011;52365;47.464;18.976;2023-04-01T00:39:58;4.40;;;2.60;;
65665;SDS011;52365;47.464;18.976;2023-04-01T00:40:42;3.40;;;2.30;;
65665;SDS011;52365;47.464;18.976;2023-04-01T00:41:20;3.90;;;2.40;;
65665;SDS011;52365;47.464;18.976;2023-04-01T00:41:56;4.40;;;2.40;;
65665;SDS011;52365;47.464;18.976;2023-04-01T00:42:33;3.45;;;2.30;;
65665;SDS011;52365;47.464;18.976;2023-04-01T00:43:14;4.03;;;2.30;;
65665;SDS011;52365;47.464;18.976;2023-04-01T00:44:11;4.25;;;2.42;;
65665;SDS011;52365;47.464;18.976;2023-04-01T00:44:53;4.55;;;2.37;;
65665;SDS011;52365;47.464;18.976;2023-04-01T00:45:34;3.40;;;2.10;;
65665;SDS011;52365;47.464;18.976;2023-04-01T00:46:13;3.58;;;2.17;;
65665;SDS011;52365;47.464;18.976;2023-04-01T00:46:50;4.25;;;2.40;;
65665;SDS011;52365;47.464;18.976;2023-04-01T00:47:28;3.45;;;2.10;;
65665;SDS011;52365;47.464;18.976;2023-04-01T00:48:05;4.93;;;2.10;;
65665;SDS011;52365;47.464;18.976;2023-04-01T00:48:49;4.07;;;2.08;;
65665;SDS011;52365;47.464;18.976;2023-04-01T00:49:36;3.90;;;2.12;;
65665;SDS011;52365;47.464;18.976;2023-04-01T00:50:16;5.03;;;2.35;;
65665;SDS011;52365;47.464;18.976;2023-04-01T00:50:54;4.68;;;2.25;;
65665;SDS011;52365;47.464;18.976;2023-04-01T00:51:35;3.37;;;2.05;;
65665;SDS011;52365;47.464;18.976;2023-04-01T00:52:15;5.05;;;2.10;;
65665;SDS011;52365;47.464;18.976;2023-04-01T00:52:55;3.83;;;2.00;;
65665;SDS011;52365;47.464;18.976;2023-04-01T00:53:31;4.95;;;2.50;;
65665;SDS011;52365;47.464;18.976;2023-04-01T00:54:10;3.25;;;1.98;;
65665;SDS011;52365;47.464;18.976;2023-04-01T00:54:48;3.67;;;2.00;;
65665;SDS011;52365;47.464;18.976;2023-04-01T00:55:28;3.20;;;2.22;;
65665;SDS011;52365;47.464;18.976;2023-04-01T00:56:09;4.75;;;2.35;;
65665;SDS011;52365;47.464;18.976;2023-04-01T00:56:50;3.50;;;2.22;;
65665;SDS011;52365;47.464;18.976;2023-04-01T00:57:32;3.58;;;2.10;;
65665;SDS011;52365;47.464;18.976;2023-04-01T00:58:13;3.60;;;2.10;;
65665;SDS011;52365;47.464;18.976;2023-04-01T00:58:58;4.18;;;1.98;;
65665;SDS011;52365;47.464;18.976;2023-04-01T00:59:39;4.07;;;2.15;;
65665;SDS011;52365;47.464;18.976;2023-04-01T01:00:18;4.18;;;2.17;;
65665;SDS011;52365;47.464;18.976;2023-04-01T01:00:55;3.03;;;1.92;;
65665;SDS011;52365;47.464;18.976;2023-04-01T01:01:34;3.72;;;2.08;;
65665;SDS011;52365;47.464;18.976;2023-04-01T01:02:12;3.65;;;1.92;;
65665;SDS011;52365;47.464;18.976;2023-04-01T01:02:49;3.25;;;1.90;;
65665;SDS011;52365;47.464;18.976;2023-04-01T01:03:27;3.60;;;2.10;;
65665;SDS011;52365;47.464;18.976;2023-04-01T01:04:03;3.90;;;2.15;;
65665;SDS011;52365;47.464;18.976;2023-04-01T01:04:39;3.75;;;2.10;;
65665;SDS011;52365;47.464;18.976;2023-04-01T01:05:15;3.80;;;2.08;;
65665;SDS011;52365;47.464;18.976;2023-04-01T01:06:28;3.37;;;2.05;;
65665;SDS011;52365;47.464;18.976;2023-04-01T01:07:24;3.08;;;2.10;;
65665;SDS011;52365;47.464;18.976;2023-04-01T01:10:40;4.28;;;1.87;;
65665;SDS011;52365;47.464;18.976;2023-04-01T01:11:17;3.37;;;2.12;;
65665;SDS011;52365;47.464;18.976;2023-04-01T01:12:03;3.33;;;2.05;;
65665;SDS011;52365;47.464;18.976;2023-04-01T01:13:36;2.65;;;2.00;;
65665;SDS011;52365;47.464;18.976;2023-04-01T01:15:19;3.70;;;2.30;;
65665;SDS011;52365;47.464;18.976;2023-04-01T01:16:00;3.95;;;2.22;;
65665;SDS011;52365;47.464;18.976;2023-04-01T01:17:02;4.35;;;2.45;;
65665;SDS011;52365;47.464;18.976;2023-04-01T01:17:59;4.00;;;2.12;;
65665;SDS011;52365;47.464;18.976;2023-04-01T01:19:28;3.87;;;2.30;;
65665;SDS011;52365;47.464;18.976;2023-04-01T01:23:57;3.78;;;2.53;;
65665;SDS011;52365;47.464;18.976;2023-04-01T01:27:30;5.00;;;2.83;;
65665;SDS011;52365;47.464;18.976;2023-04-01T01:29:01;4.75;;;2.90;;
65665;SDS011;52365;47.464;18.976;2023-04-01T01:33:02;5.20;;;2.90;;
65665;SDS011;52365;47.464;18.976;2023-04-01T01:33:55;5.47;;;3.10;;
65665;SDS011;52365;47.464;18.976;2023-04-01T01:35:48;6.40;;;3.30;;
65665;SDS011;52365;47.464;18.976;2023-04-01T01:36:28;5.18;;;3.20;;
65665;SDS011;52365;47.464;18.976;2023-04-01T01:37:10;5.85;;;3.55;;
65665;SDS011;52365;47.464;18.976;2023-04-01T01:37:52;4.93;;;3.30;;
65665;SDS011;52365;47.464;18.976;2023-04-01T01:38:33;5.25;;;3.20;;
65665;SDS011;52365;47.464;18.976;2023-04-01T01:39:10;5.07;;;3.40;;
65665;SDS011;52365;47.464;18.976;2023-04-01T01:39:51;7.43;;;3.40;;
65665;SDS011;52365;47.464;18.976;2023-04-01T01:40:31;5.95;;;3.42;;
65665;SDS011;52365;47.464;18.976;2023-04-01T01:41:10;4.10;;;3.20;;
65665;SDS011;52365;47.464;18.976;2023-04-01T01:41:49;5.25;;;3.50;;
65665;SDS011;52365;47.464;18.976;2023-04-01T01:42:26;5.20;;;3.55;;
65665;SDS011;52365;47.464;18.976;2023-04-01T01:43:05;5.68;;;3.70;;
65665;SDS011;52365;47.464;18.976;2023-04-01T01:43:46;5.80;;;3.58;;
65665;SDS011;52365;47.464;18.976;2023-04-01T01:44:25;4.85;;;3.70;;
65665;SDS011;52365;47.464;18.976;2023-04-01T01:45:05;4.53;;;3.70;;
65665;SDS011;52365;47.464;18.976;2023-04-01T01:45:45;5.00;;;3.53;;
65665;SDS011;52365;47.464;18.976;2023-04-01T01:46:25;7.62;;;3.72;;
65665;SDS011;52365;47.464;18.976;2023-04-01T01:47:03;4.93;;;3.58;;
65665;SDS011;52365;47.464;18.976;2023-04-01T01:47:40;5.93;;;3.62;;
65665;SDS011;52365;47.464;18.976;2023-04-01T01:48:17;5.12;;;3.80;;
65665;SDS011;52365;47.464;18.976;2023-04-01T01:48:55;5.30;;;3.87;;
65665;SDS011;52365;47.464;18.976;2023-04-01T01:49:33;5.55;;;3.97;;
65665;SDS011;52365;47.464;18.976;2023-04-01T01:50:11;5.03;;;3.50;;
65665;SDS011;52365;47.464;18.976;2023-04-01T01:50:49;5.95;;;3.42;;
65665;SDS011;52365;47.464;18.976;2023-04-01T01:51:26;5.25;;;3.33;;
65665;SDS011;52365;47.464;18.976;2023-04-01T01:52:03;4.32;;;3.55;;
65665;SDS011;52365;47.464;18.976;2023-04-01T01:52:39;4.40;;;3.33;;
65665;SDS011;52365;47.464;18.976;2023-04-01T01:53:15;4.62;;;3.47;;
65665;SDS011;52365;47.464;18.976;2023-04-01T01:53:52;5.03;;;3.30;;
65665;SDS011;52365;47.464;18.976;2023-04-01T01:54:28;4.15;;;3.20;;
65665;SDS011;52365;47.464;18.976;2023-04-01T01:55:22;6.50;;;3.50;;
65665;SDS011;52365;47.464;18.976;2023-04-01T01:56:04;4.00;;;3.08;;
65665;SDS011;52365;47.464;18.976;2023-04-01T01:56:41;5.57;;;3.30;;
65665;SDS011;52365;47.464;18.976;2023-04-01T01:57:23;3.37;;;2.50;;
65665;SDS011;52365;47.464;18.976;2023-04-01T01:58:19;4.85;;;3.12;;
65665;SDS011;52365;47.464;18.976;2023-04-01T01:59:02;3.83;;;2.35;;
65665;SDS011;52365;47.464;18.976;2023-04-01T01:59:42;3.70;;;2.10;;
65665;SDS011;52365;47.464;18.976;2023-04-01T02:00:20;3.10;;;1.90;;
65665;SDS011;52365;47.464;18.976;2023-04-01T02:00:58;2.87;;;1.70;;
65665;SDS011;52365;47.464;18.976;2023-04-01T02:01:37;3.80;;;1.70;;
65665;SDS011;52365;47.464;18.976;2023-04-01T02:02:17;3.37;;;1.90;;
65665;SDS011;52365;47.464;18.976;2023-04-01T02:02:54;3.80;;;1.87;;
65665;SDS011;52365;47.464;18.976;2023-04-01T02:03:33;3.30;;;1.70;;
65665;SDS011;52365;47.464;18.976;2023-04-01T02:04:12;2.90;;;1.65;;
65665;SDS011;52365;47.464;18.976;2023-04-01T02:04:50;3.28;;;1.62;;
65665;SDS011;52365;47.464;18.976;2023-04-01T02:05:28;2.58;;;1.50;;
65665;SDS011;52365;47.464;18.976;2023-04-01T02:06:07;3.60;;;1.60;;
65665;SDS011;52365;47.464;18.976;2023-04-01T02:06:51;3.60;;;1.50;;
65665;SDS011;52365;47.464;18.976;2023-04-01T02:07:32;3.17;;;1.80;;
65665;SDS011;52365;47.464;18.976;2023-04-01T02:08:15;3.92;;;1.50;;
65665;SDS011;52365;47.464;18.976;2023-04-01T02:08:57;4.37;;;1.50;;
65665;SDS011;52365;47.464;18.976;2023-04-01T02:09:38;4.80;;;1.58;;
65665;SDS011;52365;47.464;18.976;2023-04-01T02:10:15;3.35;;;1.50;;
65665;SDS011;52365;47.464;18.976;2023-04-01T02:10:55;2.70;;;1.50;;
65665;SDS011;52365;47.464;18.976;2023-04-01T02:12:29;3.08;;;1.45;;
65665;SDS011;52365;47.464;18.976;2023-04-01T02:13:12;3.00;;;1.55;;
65665;SDS011;52365;47.464;18.976;2023-04-01T02:14:08;3.05;;;1.40;;
65665;SDS011;52365;47.464;18.976;2023-04-01T02:14:51;3.53;;;1.40;;
65665;SDS011;52365;47.464;18.976;2023-04-01T02:15:31;2.37;;;1.40;;
65665;SDS011;52365;47.464;18.976;2023-04-01T02:16:14;3.12;;;1.62;;
65665;SDS011;52365;47.464;18.976;2023-04-01T02:17:04;3.10;;;1.55;;
65665;SDS011;52365;47.464;18.976;2023-04-01T02:17:45;4.40;;;1.50;;
65665;SDS011;52365;47.464;18.976;2023-04-01T02:18:23;2.78;;;1.50;;
65665;SDS011;52365;47.464;18.976;2023-04-01T02:19:00;2.95;;;1.55;;
65665;SDS011;52365;47.464;18.976;2023-04-01T02:19:39;4.37;;;1.65;;
65665;SDS011;52365;47.464;18.976;2023-04-01T02:20:21;3.62;;;1.30;;
65665;SDS011;52365;47.464;18.976;2023-04-01T02:20:59;3.72;;;1.60;;
65665;SDS011;52365;47.464;18.976;2023-04-01T02:21:36;3.05;;;1.45;;
65665;SDS011;52365;47.464;18.976;2023-04-01T02:22:16;4.20;;;1.58;;
65665;SDS011;52365;47.464;18.976;2023-04-01T02:22:56;2.97;;;1.60;;
65665;SDS011;52365;47.464;18.976;2023-04-01T02:23:35;3.50;;;1.60;;
65665;SDS011;52365;47.464;18.976;2023-04-01T02:24:13;3.17;;;1.50;;
65665;SDS011;52365;47.464;18.976;2023-04-01T02:24:52;4.35;;;1.60;;
65665;SDS011;52365;47.464;18.976;2023-04-01T02:25:33;3.20;;;1.60;;
65665;SDS011;52365;47.464;18.976;2023-04-01T02:26:12;2.58;;;1.67;;
65665;SDS011;52365;47.464;18.976;2023-04-01T02:26:50;3.40;;;1.60;;
65665;SDS011;52365;47.464;18.976;2023-04-01T02:27:27;3.28;;;1.48;;
65665;SDS011;52365;47.464;18.976;2023-04-01T02:28:05;3.05;;;1.50;;
65665;SDS011;52365;47.464;18.976;2023-04-01T02:28:43;5.00;;;1.50;;
65665;SDS011;52365;47.464;18.976;2023-04-01T02:29:22;2.90;;;1.50;;
65665;SDS011;52365;47.464;18.976;2023-04-01T02:30:01;2.95;;;1.60;;
65665;SDS011;52365;47.464;18.976;2023-04-01T02:30:38;2.30;;;1.50;;
65665;SDS011;52365;47.464;18.976;2023-04-01T02:31:16;4.53;;;1.60;;
65665;SDS011;52365;47.464;18.976;2023-04-01T02:31:53;3.10;;;1.60;;
65665;SDS011;52365;47.464;18.976;2023-04-01T02:32:30;2.20;;;1.40;;
65665;SDS011;52365;47.464;18.976;2023-04-01T02:33:09;3.10;;;1.65;;
65665;SDS011;52365;47.464;18.976;2023-04-01T02:33:45;3.35;;;1.37;;
65665;SDS011;52365;47.464;18.976;2023-04-01T02:34:23;3.47;;;1.63;;
65665;SDS011;52365;47.464;18.976;2023-04-01T02:35:00;2.85;;;1.67;;
65665;SDS011;52365;47.464;18.976;2023-04-01T02:35:41;3.25;;;1.60;;
65665;SDS011;52365;47.464;18.976;2023-04-01T02:36:17;3.80;;;1.42;;
65665;SDS011;52365;47.464;18.976;2023-04-01T02:36:54;3.72;;;1.42;;
65665;SDS011;52365;47.464;18.976;2023-04-01T02:37:31;3.90;;;1.50;;
65665;SDS011;52365;47.464;18.976;2023-04-01T02:38:08;2.97;;;1.42;;
65665;SDS011;52365;47.464;18.976;2023-04-01T02:38:44;3.25;;;1.40;;
65665;SDS011;52365;47.464;18.976;2023-04-01T02:39:21;3.35;;;1.60;;
65665;SDS011;52365;47.464;18.976;2023-04-01T02:40:02;2.90;;;1.55;;
65665;SDS011;52365;47.464;18.976;2023-04-01T02:40:44;3.28;;;1.42;;
65665;SDS011;52365;47.464;18.976;2023-04-01T02:41:23;2.03;;;1.30;;
65665;SDS011;52365;47.464;18.976;2023-04-01T02:42:00;2.75;;;1.40;;
65665;SDS011;52365;47.464;18.976;2023-04-01T02:42:36;3.35;;;1.42;;
65665;SDS011;52365;47.464;18.976;2023-04-01T02:43:12;3.30;;;1.50;;
65665;SDS011;52365;47.464;18.976;2023-04-01T02:43:48;3.40;;;1.48;;
65665;SDS011;52365;47.464;18.976;2023-04-01T02:44:24;3.42;;;1.50;;
65665;SDS011;52365;47.464;18.976;2023-04-01T02:45:01;2.87;;;1.50;;
65665;SDS011;52365;47.464;18.976;2023-04-01T02:45:37;2.72;;;1.70;;
65665;SDS011;52365;47.464;18.976;2023-04-01T02:46:14;4.53;;;1.50;;
65665;SDS011;52365;47.464;18.976;2023-04-01T02:46:50;2.53;;;1.52;;
65665;SDS011;52365;47.464;18.976;2023-04-01T02:47:26;3.87;;;1.92;;
65665;SDS011;52365;47.464;18.976;2023-04-01T02:48:02;3.28;;;1.77;;
65665;SDS011;52365;47.464;18.976;2023-04-01T02:48:38;3.35;;;1.60;;
65665;SDS011;52365;47.464;18.976;2023-04-01T02:49:14;3.47;;;2.08;;
65665;SDS011;52365;47.464;18.976;2023-04-01T02:49:50;3.75;;;1.70;;
65665;SDS011;52365;47.464;18.976;2023-04-01T02:50:26;4.00;;;2.20;;
65665;SDS011;52365;47.464;18.976;2023-04-01T02:51:02;3.65;;;2.05;;
65665;SDS011;52365;47.464;18.976;2023-04-01T02:51:39;4.50;;;2.25;;
65665;SDS011;52365;47.464;18.976;2023-04-01T02:52:15;5.70;;;2.40;;
65665;SDS011;52365;47.464;18.976;2023-04-01T02:52:51;3.25;;;2.12;;
65665;SDS011;52365;47.464;18.976;2023-04-01T02:53:27;3.62;;;2.40;;
65665;SDS011;52365;47.464;18.976;2023-04-01T02:54:03;4.60;;;2.62;;
65665;SDS011;52365;47.464;18.976;2023-04-01T02:54:39;4.22;;;2.60;;
65665;SDS011;52365;47.464;18.976;2023-04-01T02:55:16;4.18;;;2.78;;
65665;SDS011;52365;47.464;18.976;2023-04-01T02:55:52;5.25;;;3.00;;
65665;SDS011;52365;47.464;18.976;2023-04-01T02:56:28;5.20;;;3.00;;
65665;SDS011;52365;47.464;18.976;2023-04-01T02:57:04;4.43;;;2.90;;
65665;SDS011;52365;47.464;18.976;2023-04-01T02:57:41;4.57;;;2.70;;
65665;SDS011;52365;47.464;18.976;2023-04-01T02:58:17;4.70;;;2.90;;
65665;SDS011;52365;47.464;18.976;2023-04-01T02:58:53;5.57;;;2.87;;
65665;SDS011;52365;47.464;18.976;2023-04-01T02:59:29;4.37;;;2.53;;
65665;SDS011;52365;47.464;18.976;2023-04-01T03:00:06;4.87;;;2.80;;
65665;SDS011;52365;47.464;18.976;2023-04-01T03:00:46;5.05;;;3.00;;
65665;SDS011;52365;47.464;18.976;2023-04-01T03:01:22;5.70;;;2.85;;
65665;SDS011;52365;47.464;18.976;2023-04-01T03:01:58;4.70;;;2.65;;
65665;SDS011;52365;47.464;18.976;2023-04-01T03:02:35;4.18;;;2.62;;
65665;SDS011;52365;47.464;18.976;2023-04-01T03:03:11;5.20;;;2.72;;
65665;SDS011;52365;47.464;18.976;2023-04-01T03:03:49;4.65;;;2.58;;
65665;SDS011;52365;47.464;18.976;2023-04-01T03:04:25;4.90;;;3.00;;
65665;SDS011;52365;47.464;18.976;2023-04-01T03:05:01;4.47;;;2.92;;
65665;SDS011;52365;47.464;18.976;2023-04-01T03:05:37;5.57;;;3.17;;
65665;SDS011;52365;47.464;18.976;2023-04-01T03:06:14;5.18;;;3.10;;
65665;SDS011;52365;47.464;18.976;2023-04-01T03:06:51;5.40;;;3.20;;
65665;SDS011;52365;47.464;18.976;2023-04-01T03:07:27;5.30;;;3.03;;
65665;SDS011;52365;47.464;18.976;2023-04-01T03:08:03;4.87;;;3.10;;
65665;SDS011;52365;47.464;18.976;2023-04-01T03:08:40;6.22;;;3.25;;
65665;SDS011;52365;47.464;18.976;2023-04-01T03:09:16;5.82;;;3.12;;
65665;SDS011;52365;47.464;18.976;2023-04-01T03:09:52;4.43;;;3.10;;
65665;SDS011;52365;47.464;18.976;2023-04-01T03:10:28;5.85;;;3.75;;
65665;SDS011;52365;47.464;18.976;2023-04-01T03:11:04;4.95;;;3.28;;
65665;SDS011;52365;47.464;18.976;2023-04-01T03:11:41;5.10;;;3.37;;
65665;SDS011;52365;47.464;18.976;2023-04-01T03:12:17;5.82;;;3.50;;
65665;SDS011;52365;47.464;18.976;2023-04-01T03:12:53;5.73;;;3.20;;
65665;SDS011;52365;47.464;18.976;2023-04-01T03:13:29;5.35;;;3.10;;
65665;SDS011;52365;47.464;18.976;2023-04-01T03:14:05;6.62;;;3.17;;
65665;SDS011;52365;47.464;18.976;2023-04-01T03:14:42;5.10;;;2.95;;
65665;SDS011;52365;47.464;18.976;2023-04-01T03:15:18;4.50;;;2.90;;
65665;SDS011;52365;47.464;18.976;2023-04-01T03:15:54;5.60;;;3.42;;
65665;SDS011;52365;47.464;18.976;2023-04-01T03:16:30;4.72;;;2.78;;
65665;SDS011;52365;47.464;18.976;2023-04-01T03:17:06;5.37;;;2.97;;
65665;SDS011;52365;47.464;18.976;2023-04-01T03:17:43;5.30;;;3.03;;
65665;SDS011;52365;47.464;18.976;2023-04-01T03:18:19;3.55;;;2.90;;
65665;SDS011;52365;47.464;18.976;2023-04-01T03:18:55;4.72;;;2.92;;
65665;SDS011;52365;47.464;18.976;2023-04-01T03:19:34;5.75;;;2.80;;
65665;SDS011;52365;47.464;18.976;2023-04-01T03:20:10;5.40;;;3.40;;
65665;SDS011;52365;47.464;18.976;2023-04-01T03:20:47;4.60;;;3.30;;
65665;SDS011;52365;47.464;18.976;2023-04-01T03:21:23;4.28;;;3.12;;
65665;SDS011;52365;47.464;18.976;2023-04-01T03:21:59;4.50;;;3.03;;
65665;SDS011;52365;47.464;18.976;2023-04-01T03:22:36;5.10;;;3.25;;
65665;SDS011;52365;47.464;18.976;2023-04-01T03:23:12;5.18;;;3.53;;
65665;SDS011;52365;47.464;18.976;2023-04-01T03:23:48;4.10;;;2.90;;
65665;SDS011;52365;47.464;18.976;2023-04-01T03:24:25;4.75;;;3.00;;
65665;SDS011;52365;47.464;18.976;2023-04-01T03:25:01;4.75;;;3.00;;
65665;SDS011;52365;47.464;18.976;2023-04-01T03:25:38;5.25;;;3.10;;
65665;SDS011;52365;47.464;18.976;2023-04-01T03:26:15;5.25;;;2.92;;
65665;SDS011;52365;47.464;18.976;2023-04-01T03:26:51;5.72;;;2.95;;
65665;SDS011;52365;47.464;18.976;2023-04-01T03:27:27;3.80;;;2.40;;
65665;SDS011;52365;47.464;18.976;2023-04-01T03:28:03;4.55;;;2.70;;
65665;SDS011;52365;47.464;18.976;2023-04-01T03:28:39;4.15;;;2.80;;
65665;SDS011;52365;47.464;18.976;2023-04-01T03:29:15;5.78;;;3.03;;
65665;SDS011;52365;47.464;18.976;2023-04-01T03:29:52;7.97;;;4.10;;
65665;SDS011;52365;47.464;18.976;2023-04-01T03:30:28;7.72;;;3.92;;
65665;SDS011;52365;47.464;18.976;2023-04-01T03:31:07;6.57;;;3.60;;
65665;SDS011;52365;47.464;18.976;2023-04-01T03:31:43;7.70;;;3.50;;
65665;SDS011;52365;47.464;18.976;2023-04-01T03:32:20;6.22;;;3.45;;
65665;SDS011;52365;47.464;18.976;2023-04-01T03:32:56;7.00;;;3.42;;
65665;SDS011;52365;47.464;18.976;2023-04-01T03:33:32;7.07;;;3.17;;
65665;SDS011;52365;47.464;18.976;2023-04-01T03:34:09;4.28;;;2.50;;
65665;SDS011;52365;47.464;18.976;2023-04-01T03:34:45;4.28;;;2.33;;
65665;SDS011;52365;47.464;18.976;2023-04-01T03:35:21;4.50;;;2.40;;
65665;SDS011;52365;47.464;18.976;2023-04-01T03:35:57;3.47;;;2.42;;
65665;SDS011;52365;47.464;18.976;2023-04-01T03:36:33;5.40;;;2.80;;
65665;SDS011;52365;47.464;18.976;2023-04-01T03:37:10;4.72;;;2.35;;
65665;SDS011;52365;47.464;18.976;2023-04-01T03:37:46;4.60;;;2.40;;
65665;SDS011;52365;47.464;18.976;2023-04-01T03:38:22;5.05;;;2.35;;
65665;SDS011;52365;47.464;18.976;2023-04-01T03:38:58;3.90;;;2.10;;
65665;SDS011;52365;47.464;18.976;2023-04-01T03:39:34;4.22;;;2.10;;
65665;SDS011;52365;47.464;18.976;2023-04-01T03:40:11;3.58;;;2.00;;
65665;SDS011;52365;47.464;18.976;2023-04-01T03:40:47;5.43;;;2.37;;
65665;SDS011;52365;47.464;18.976;2023-04-01T03:41:23;4.20;;;2.20;;
65665;SDS011;52365;47.464;18.976;2023-04-01T03:41:59;5.30;;;1.90;;
65665;SDS011;52365;47.464;18.976;2023-04-01T03:42:35;4.82;;;1.90;;
65665;SDS011;52365;47.464;18.976;2023-04-01T03:43:11;3.20;;;1.62;;
65665;SDS011;52365;47.464;18.976;2023-04-01T03:43:47;2.42;;;1.50;;
65665;SDS011;52365;47.464;18.976;2023-04-01T03:44:23;3.05;;;1.50;;
65665;SDS011;52365;47.464;18.976;2023-04-01T03:45:00;2.58;;;1.55;;
65665;SDS011;52365;47.464;18.976;2023-04-01T03:45:44;4.37;;;1.62;;
65665;SDS011;52365;47.464;18.976;2023-04-01T03:46:24;4.07;;;1.60;;
65665;SDS011;52365;47.464;18.976;2023-04-01T03:47:00;3.37;;;1.70;;
65665;SDS011;52365;47.464;18.976;2023-04-01T03:47:37;2.83;;;1.50;;
65665;SDS011;52365;47.464;18.976;2023-04-01T03:48:14;2.85;;;1.50;;
65665;SDS011;52365;47.464;18.976;2023-04-01T03:48:50;2.30;;;1.52;;
65665;SDS011;52365;47.464;18.976;2023-04-01T03:49:26;3.17;;;1.50;;
65665;SDS011;52365;47.464;18.976;2023-04-01T03:50:03;2.00;;;1.20;;
65665;SDS011;52365;47.464;18.976;2023-04-01T03:50:40;2.33;;;1.42;;
65665;SDS011;52365;47.464;18.976;2023-04-01T03:51:16;2.40;;;1.40;;
65665;SDS011;52365;47.464;18.976;2023-04-01T03:51:52;2.08;;;1.30;;
65665;SDS011;52365;47.464;18.976;2023-04-01T03:52:28;3.00;;;1.40;;
65665;SDS011;52365;47.464;18.976;2023-04-01T03:53:04;2.12;;;1.30;;
65665;SDS011;52365;47.464;18.976;2023-04-01T03:53:40;2.70;;;1.40;;
65665;SDS011;52365;47.464;18.976;2023-04-01T03:54:16;2.60;;;1.30;;
65665;SDS011;52365;47.464;18.976;2023-04-01T03:54:53;2.72;;;1.40;;
65665;SDS011;52365;47.464;18.976;2023-04-01T03:55:29;2.45;;;1.27;;
65665;SDS011;52365;47.464;18.976;2023-04-01T03:56:06;2.87;;;1.40;;
65665;SDS011;52365;47.464;18.976;2023-04-01T03:56:42;2.15;;;1.40;;
65665;SDS011;52365;47.464;18.976;2023-04-01T03:57:19;2.45;;;1.37;;
65665;SDS011;52365;47.464;18.976;2023-04-01T03:57:55;2.72;;;1.30;;
65665;SDS011;52365;47.464;18.976;2023-04-01T03:58:31;1.98;;;1.42;;
65665;SDS011;52365;47.464;18.976;2023-04-01T03:59:07;2.20;;;1.40;;
65665;SDS011;52365;47.464;18.976;2023-04-01T03:59:44;3.20;;;1.60;;
65665;SDS011;52365;47.464;18.976;2023-04-01T04:00:20;3.70;;;1.50;;
65665;SDS011;52365;47.464;18.976;2023-04-01T04:00:56;2.62;;;1.40;;
65665;SDS011;52365;47.464;18.976;2023-04-01T04:01:32;2.65;;;1.30;;
65665;SDS011;52365;47.464;18.976;2023-04-01T04:02:08;2.45;;;1.37;;
65665;SDS011;52365;47.464;18.976;2023-04-01T04:02:44;3.28;;;1.45;;
65665;SDS011;52365;47.464;18.976;2023-04-01T04:03:20;2.55;;;1.45;;
65665;SDS011;52365;47.464;18.976;2023-04-01T04:03:57;3.75;;;1.30;;
65665;SDS011;52365;47.464;18.976;2023-04-01T04:04:33;2.87;;;1.30;;